createdAt,value
2022-11-06T00:02:20.967Z,211.57
2022-11-06T00:04:49.313Z,205.30
2022-11-06T00:07:24.816Z,202.50
2022-11-06T00:09:51.716Z,202.47
2022-11-06T00:12:22.677Z,208.40
2022-11-06T00:14:51.186Z,212.70
2022-11-06T00:17:18.081Z,204.17
2022-11-06T00:19:44.962Z,206.30
2022-11-06T00:22:11.933Z,200.73
2022-11-06T00:24:38.814Z,205.17
2022-11-06T00:27:05.685Z,205.37
2022-11-06T00:29:33.038Z,215.30
2022-11-06T00:31:59.936Z,204.87
2022-11-06T00:34:26.826Z,213.07
2022-11-06T00:36:53.712Z,205.53
2022-11-06T00:39:20.598Z,212.77
2022-11-06T00:41:47.493Z,205.13
2022-11-06T00:44:14.510Z,204.03
2022-11-06T00:46:41.451Z,204.97
2022-11-06T00:49:09.353Z,207.53
2022-11-06T00:51:43.013Z,201.07
2022-11-06T00:54:16.358Z,205.50
2022-11-06T00:56:52.689Z,206.93
2022-11-06T00:59:19.602Z,202.00
2022-11-06T01:01:53.105Z,203.67
2022-11-06T01:04:23.778Z,213.20
2022-11-06T01:06:56.880Z,207.60
2022-11-06T01:09:27.761Z,202.10
2022-11-06T01:12:15.181Z,208.73
2022-11-06T01:14:43.771Z,212.20
2022-11-06T01:17:11.101Z,214.37
2022-11-06T01:19:41.060Z,204.77
2022-11-06T01:22:13.332Z,201.17
2022-11-06T01:24:40.307Z,202.07
2022-11-06T01:27:27.615Z,204.80
2022-11-06T01:29:55.572Z,206.03
2022-11-06T01:32:28.640Z,206.57
2022-11-06T01:34:55.921Z,201.67
2022-11-06T01:37:23.201Z,207.77
2022-11-06T01:39:56.130Z,201.80
2022-11-06T01:42:28.466Z,200.47
2022-11-06T01:45:25.238Z,202.93
2022-11-06T01:47:52.203Z,202.47
2022-11-06T01:50:22.349Z,207.20
2022-11-06T01:52:51.640Z,200.33
2022-11-06T01:55:27.308Z,198.97
2022-11-06T01:57:55.948Z,210.40
2022-11-06T02:00:23.598Z,203.57
2022-11-06T02:02:51.878Z,213.93
2022-11-06T02:05:19.399Z,205.17
2022-11-06T02:07:48.155Z,210.27
2022-11-06T02:10:20.481Z,220.73
2022-11-06T02:13:15.955Z,213.87
2022-11-06T02:16:17.806Z,217.30
2022-11-06T02:19:28.243Z,211.83
2022-11-06T02:22:15.007Z,209.40
2022-11-06T02:25:07.659Z,207.87
2022-11-06T02:27:37.901Z,201.53
2022-11-06T02:30:14.086Z,205.83
2022-11-06T02:33:21.645Z,199.87
2022-11-06T02:36:01.884Z,198.33
2022-11-06T02:38:38.963Z,206.37
2022-11-06T02:41:22.743Z,201.93
2022-11-06T02:43:55.748Z,207.90
2022-11-06T02:46:37.780Z,209.60
2022-11-06T02:49:30.709Z,208.60
2022-11-06T02:52:05.554Z,204.00
2022-11-06T02:54:38.654Z,221.10
2022-11-06T02:57:10.962Z,209.97
2022-11-06T03:00:02.874Z,215.03
2022-11-06T03:02:37.551Z,208.93
2022-11-06T03:05:32.473Z,202.47
2022-11-06T03:08:05.701Z,200.63
2022-11-06T03:10:46.438Z,199.77
2022-11-06T03:13:53.022Z,205.60
2022-11-06T03:16:29.029Z,208.53
2022-11-06T03:19:22.292Z,197.70
2022-11-06T03:22:02.993Z,202.67
2022-11-06T03:24:54.327Z,195.43
2022-11-06T03:27:35.430Z,202.20
2022-11-06T03:30:08.337Z,199.60
2022-11-06T03:33:14.029Z,207.73
2022-11-06T03:35:53.180Z,199.17
2022-11-06T03:38:36.133Z,200.20
2022-11-06T03:41:14.353Z,201.43
2022-11-06T03:43:44.328Z,198.93
2022-11-06T03:46:19.488Z,203.43
2022-11-06T03:49:01.123Z,202.57
2022-11-06T03:51:40.328Z,211.23
2022-11-06T03:54:20.521Z,205.10
2022-11-06T03:56:57.570Z,205.00
2022-11-06T03:59:33.092Z,201.00
2022-11-06T04:02:01.826Z,199.80
2022-11-06T04:04:36.940Z,202.43
2022-11-06T04:07:10.910Z,214.60
2022-11-06T04:10:01.444Z,199.93
2022-11-06T04:13:06.345Z,195.80
2022-11-06T04:15:43.093Z,202.30
2022-11-06T04:18:20.225Z,200.57
2022-11-06T04:21:25.043Z,198.43
2022-11-06T04:24:20.091Z,200.77
2022-11-06T04:27:11.488Z,202.77
2022-11-06T04:30:04.872Z,201.27
2022-11-06T04:32:50.050Z,196.20
2022-11-06T04:35:49.126Z,202.83
2022-11-06T04:38:41.118Z,206.20
2022-11-06T04:41:21.314Z,197.43
2022-11-06T04:44:23.374Z,197.93
2022-11-06T04:46:57.853Z,207.50
2022-11-06T04:49:27.338Z,200.10
2022-11-06T04:51:54.977Z,208.03
2022-11-06T04:54:22.628Z,202.53
2022-11-06T04:56:50.389Z,194.97
2022-11-06T04:59:18.664Z,199.57
2022-11-06T05:01:46.957Z,196.97
2022-11-06T05:04:15.148Z,197.83
2022-11-06T05:06:42.034Z,198.53
2022-11-06T05:09:08.911Z,194.37
2022-11-06T05:11:36.191Z,201.30
2022-11-06T05:14:03.094Z,196.33
2022-11-06T05:16:30.454Z,204.23
2022-11-06T05:18:57.340Z,206.53
2022-11-06T05:21:43.215Z,204.23
2022-11-06T05:24:10.274Z,199.27
2022-11-06T05:26:37.203Z,204.83
2022-11-06T05:29:04.096Z,193.67
2022-11-06T05:31:31.081Z,196.13
2022-11-06T05:33:57.967Z,192.37
2022-11-06T05:36:24.910Z,194.40
2022-11-06T05:38:51.945Z,195.13
2022-11-06T05:41:18.814Z,193.50
2022-11-06T05:43:46.046Z,196.80
2022-11-06T05:46:35.755Z,194.77
2022-11-06T05:49:00.195Z,192.33
2022-11-06T05:51:27.072Z,216.00
2022-11-06T05:53:55.516Z,204.43
2022-11-06T05:56:22.399Z,197.93
2022-11-06T05:58:49.274Z,193.50
2022-11-06T06:01:16.802Z,202.40
2022-11-06T06:03:44.073Z,187.90
2022-11-06T06:06:11.365Z,186.47
2022-11-06T06:08:38.656Z,192.67
2022-11-06T06:11:10.189Z,186.33
2022-11-06T06:13:37.848Z,183.63
2022-11-06T06:16:05.113Z,185.23
2022-11-06T06:18:32.437Z,187.37
2022-11-06T06:21:00.340Z,190.03
2022-11-06T06:23:27.624Z,200.33
2022-11-06T06:25:56.183Z,239.27
2022-11-06T06:28:23.465Z,205.07
2022-11-06T06:30:50.334Z,186.27
2022-11-06T06:33:17.744Z,198.20
2022-11-06T06:35:45.020Z,197.13
2022-11-06T06:38:12.663Z,185.17
2022-11-06T06:40:40.115Z,195.73
2022-11-06T06:43:07.410Z,199.60
2022-11-06T06:45:34.678Z,198.53
2022-11-06T06:48:06.094Z,182.90
2022-11-06T06:50:33.491Z,183.77
2022-11-06T06:53:00.871Z,176.07
2022-11-06T06:55:28.126Z,183.27
2022-11-06T06:57:59.927Z,180.23
2022-11-06T07:00:28.136Z,180.43
2022-11-06T07:02:55.504Z,185.27
2022-11-06T07:05:22.807Z,181.60
2022-11-06T07:07:50.088Z,270.57
2022-11-06T07:10:17.548Z,255.73
2022-11-06T07:12:44.936Z,234.33
2022-11-06T07:15:12.345Z,220.73
2022-11-06T07:17:40.688Z,191.93
2022-11-06T07:20:09.566Z,191.70
2022-11-06T07:22:37.673Z,187.43
2022-11-06T07:25:06.373Z,189.03
2022-11-06T07:27:33.822Z,184.77
2022-11-06T07:30:01.304Z,186.70
2022-11-06T07:32:28.781Z,182.07
2022-11-06T07:34:56.131Z,186.03
2022-11-06T07:37:23.778Z,188.73
2022-11-06T07:39:50.676Z,184.53
2022-11-06T07:42:18.088Z,184.47
2022-11-06T07:44:57.565Z,182.10
2022-11-06T07:47:24.999Z,180.50
2022-11-06T07:49:52.283Z,182.77
2022-11-06T07:52:19.613Z,182.47
2022-11-06T07:54:46.888Z,181.50
2022-11-06T07:57:14.209Z,223.07
2022-11-06T07:59:42.634Z,193.10
2022-11-06T08:02:13.640Z,183.83
2022-11-06T08:04:41.104Z,187.37
2022-11-06T08:07:08.533Z,181.87
2022-11-06T08:09:36.142Z,189.20
2022-11-06T08:12:03.673Z,197.43
2022-11-06T08:14:30.671Z,193.93
2022-11-06T08:16:58.541Z,193.53
2022-11-06T08:19:25.970Z,198.57
2022-11-06T08:21:53.322Z,190.87
2022-11-06T08:24:22.066Z,197.63
2022-11-06T08:26:49.572Z,190.27
2022-11-06T08:29:17.087Z,193.67
2022-11-06T08:31:44.385Z,199.50
2022-11-06T08:34:11.773Z,187.77
2022-11-06T08:36:50.150Z,184.60
2022-11-06T08:39:17.443Z,194.10
2022-11-06T08:41:45.237Z,192.47
2022-11-06T08:44:12.197Z,188.53
2022-11-06T08:46:39.508Z,190.50
2022-11-06T08:49:06.474Z,195.13
2022-11-06T08:51:33.757Z,190.07
2022-11-06T08:54:01.239Z,206.60
2022-11-06T08:56:28.718Z,190.67
2022-11-06T08:58:56.054Z,192.60
2022-11-06T09:01:24.282Z,194.73
2022-11-06T09:03:51.830Z,193.70
2022-11-06T09:06:18.810Z,203.13
2022-11-06T09:08:45.815Z,190.00
2022-11-06T09:11:13.259Z,184.07
2022-11-06T09:13:40.993Z,187.67
2022-11-06T09:16:12.878Z,192.10
2022-11-06T09:18:43.197Z,186.63
2022-11-06T09:21:10.615Z,191.13
2022-11-06T09:23:38.219Z,198.97
2022-11-06T09:26:05.619Z,209.73
2022-11-06T09:28:32.549Z,223.57
2022-11-06T09:30:59.440Z,219.77
2022-11-06T09:33:26.720Z,202.07
2022-11-06T09:35:54.058Z,190.90
2022-11-06T09:38:20.984Z,189.43
2022-11-06T09:40:56.455Z,190.97
2022-11-06T09:44:25.224Z,199.23
2022-11-06T09:46:54.075Z,198.17
2022-11-06T09:49:40.854Z,202.47
2022-11-06T09:52:24.227Z,200.53
2022-11-06T09:55:00.935Z,211.80
2022-11-06T09:57:35.238Z,204.70
2022-11-06T10:00:05.435Z,192.87
2022-11-06T10:02:55.838Z,198.20
2022-11-06T10:05:31.860Z,197.27
2022-11-06T10:08:03.322Z,196.77
2022-11-06T10:10:53.543Z,205.87
2022-11-06T10:13:58.170Z,207.90
2022-11-06T10:16:34.361Z,249.97
2022-11-06T10:19:15.667Z,276.73
2022-11-06T10:21:49.015Z,233.27
2022-11-06T10:24:30.621Z,204.53
2022-11-06T10:26:58.668Z,197.00
2022-11-06T10:30:14.781Z,192.80
2022-11-06T10:33:20.392Z,201.20
2022-11-06T10:36:20.488Z,191.80
2022-11-06T10:38:49.110Z,193.20
2022-11-06T10:41:26.392Z,187.53
2022-11-06T10:44:39.354Z,196.93
2022-11-06T10:47:22.640Z,198.67
2022-11-06T10:49:56.835Z,192.50
2022-11-06T10:52:51.101Z,200.03
2022-11-06T10:55:58.335Z,189.90
2022-11-06T10:58:31.841Z,190.60
2022-11-06T11:01:04.683Z,195.53
2022-11-06T11:03:43.210Z,189.20
2022-11-06T11:06:10.305Z,194.47
2022-11-06T11:08:44.543Z,199.43
2022-11-06T11:11:14.363Z,198.07
2022-11-06T11:13:43.842Z,200.03
2022-11-06T11:16:22.900Z,211.07
2022-11-06T11:18:51.315Z,200.37
2022-11-06T11:21:27.761Z,195.43
2022-11-06T11:24:00.646Z,202.67
2022-11-06T11:26:30.418Z,196.70
2022-11-06T11:29:01.077Z,200.63
2022-11-06T11:31:34.250Z,205.57
2022-11-06T11:34:05.379Z,201.23
2022-11-06T11:36:54.746Z,203.00
2022-11-06T11:39:45.152Z,198.00
2022-11-06T11:42:29.349Z,203.53
2022-11-06T11:45:15.868Z,206.40
2022-11-06T11:47:49.498Z,201.43
2022-11-06T11:50:31.501Z,202.63
2022-11-06T11:53:20.119Z,206.17
2022-11-06T11:55:50.707Z,194.73
2022-11-06T11:58:28.860Z,197.53
2022-11-06T12:01:03.112Z,197.87
2022-11-06T12:03:42.271Z,207.97
2022-11-06T12:06:17.381Z,203.93
2022-11-06T12:08:51.534Z,210.63
2022-11-06T12:11:29.366Z,193.30
2022-11-06T12:14:21.494Z,194.17
2022-11-06T12:16:52.646Z,199.33
2022-11-06T12:19:22.598Z,197.87
2022-11-06T12:21:57.245Z,192.93
2022-11-06T12:24:47.288Z,210.03
2022-11-06T12:27:23.357Z,195.73
2022-11-06T12:30:07.355Z,196.70
2022-11-06T12:32:58.437Z,189.33
2022-11-06T12:35:31.750Z,205.20
2022-11-06T12:38:41.598Z,197.10
2022-11-06T12:41:34.275Z,192.93
2022-11-06T12:44:01.607Z,202.33
2022-11-06T12:46:50.980Z,193.63
2022-11-06T12:50:18.604Z,196.50
2022-11-06T12:53:16.627Z,203.03
2022-11-06T12:56:11.067Z,196.00
2022-11-06T12:59:15.157Z,197.77
2022-11-06T13:02:01.137Z,193.47
2022-11-06T13:04:46.963Z,201.63
2022-11-06T13:07:44.725Z,193.03
2022-11-06T13:11:22.744Z,200.40
2022-11-06T13:14:42.028Z,215.27
2022-11-06T13:17:48.937Z,203.33
2022-11-06T13:20:38.560Z,198.23
2022-11-06T13:23:43.332Z,197.63
2022-11-06T13:26:29.213Z,207.93
2022-11-06T13:29:00.603Z,195.10
2022-11-06T13:31:37.691Z,200.37
2022-11-06T13:34:06.358Z,195.87
2022-11-06T13:36:37.015Z,200.87
2022-11-06T13:39:15.856Z,202.07
2022-11-06T13:41:42.736Z,203.80
2022-11-06T13:44:18.570Z,199.90
2022-11-06T13:47:09.338Z,202.73
2022-11-06T13:50:09.517Z,194.77
2022-11-06T13:52:47.084Z,199.90
2022-11-06T13:55:41.908Z,199.23
2022-11-06T13:58:29.473Z,197.13
2022-11-06T14:01:15.824Z,199.80
2022-11-06T14:03:55.733Z,198.43
2022-11-06T14:06:25.719Z,199.27
2022-11-06T14:08:59.839Z,201.03
2022-11-06T14:11:55.496Z,204.13
2022-11-06T14:14:22.244Z,203.67
2022-11-06T14:17:18.500Z,203.43
2022-11-06T14:19:50.309Z,207.53
2022-11-06T14:22:26.165Z,214.33
2022-11-06T14:24:57.016Z,226.27
2022-11-06T14:27:28.740Z,213.20
2022-11-06T14:30:50.282Z,231.97
2022-11-06T14:33:40.245Z,230.60
2022-11-06T14:36:36.461Z,226.40
2022-11-06T14:39:10.094Z,241.53
2022-11-06T14:41:38.412Z,235.57
2022-11-06T14:44:28.370Z,247.10
2022-11-06T14:47:01.001Z,227.97
2022-11-06T14:49:38.713Z,229.20
2022-11-06T14:52:11.745Z,227.50
2022-11-06T14:54:42.473Z,211.47
2022-11-06T14:57:16.653Z,215.87
2022-11-06T14:59:43.935Z,221.90
2022-11-06T15:02:19.791Z,216.17
2022-11-06T15:04:54.503Z,212.73
2022-11-06T15:10:43.630Z,200.83
2022-11-06T15:13:16.765Z,200.47
2022-11-06T15:15:53.011Z,205.87
2022-11-06T15:18:23.255Z,215.73
2022-11-06T15:21:00.559Z,209.23
2022-11-06T15:23:50.000Z,225.93
2022-11-06T15:26:32.262Z,220.90
2022-11-06T15:29:23.116Z,203.67
2022-11-06T15:31:58.724Z,211.37
2022-11-06T15:34:42.672Z,208.10
2022-11-06T15:37:24.434Z,228.20
2022-11-06T15:40:00.247Z,227.17
2022-11-06T15:42:37.702Z,231.50
2022-11-06T15:45:23.880Z,220.47
2022-11-06T15:48:22.252Z,212.87
2022-11-06T15:50:49.194Z,211.53
2022-11-06T15:53:22.695Z,216.67
2022-11-06T15:56:09.858Z,210.77
2022-11-06T15:58:38.189Z,207.83
2022-11-06T16:01:07.866Z,220.83
2022-11-06T16:03:54.846Z,223.23
2022-11-06T16:06:22.058Z,226.87
2022-11-06T16:08:51.006Z,211.77
2022-11-06T16:11:20.268Z,220.77
2022-11-06T16:13:47.838Z,212.63
2022-11-06T16:16:37.004Z,218.70
2022-11-06T16:19:36.839Z,206.27
2022-11-06T16:22:07.675Z,215.20
2022-11-06T16:24:47.348Z,211.17
2022-11-06T16:27:15.437Z,213.03
2022-11-06T16:29:49.016Z,210.67
2022-11-06T16:32:23.086Z,206.83
2022-11-06T16:34:51.771Z,229.23
2022-11-06T16:37:18.740Z,216.77
2022-11-06T16:39:55.227Z,241.10
2022-11-06T16:42:35.942Z,222.67
2022-11-06T16:45:07.368Z,216.93
2022-11-06T16:47:34.783Z,223.83
2022-11-06T16:50:02.121Z,226.07
2022-11-06T16:52:35.772Z,232.13
2022-11-06T16:55:16.728Z,229.67
2022-11-06T16:57:57.531Z,235.13
2022-11-06T17:00:32.745Z,222.50
2022-11-06T17:03:20.466Z,228.87
2022-11-06T17:05:56.927Z,226.20
2022-11-06T17:08:42.025Z,223.33
2022-11-06T17:11:21.874Z,236.07
2022-11-06T17:13:50.940Z,224.03
2022-11-06T17:16:21.511Z,215.40
2022-11-06T17:18:49.062Z,225.30
2022-11-06T17:21:20.215Z,216.23
2022-11-06T17:23:47.977Z,234.10
2022-11-06T17:26:35.076Z,228.10
2022-11-06T17:29:02.586Z,236.10
2022-11-06T17:31:30.613Z,231.90
2022-11-06T17:33:57.898Z,237.00
2022-11-06T17:36:27.917Z,241.13
2022-11-06T17:38:56.921Z,237.50
2022-11-06T17:41:31.254Z,250.23
2022-11-06T17:44:10.796Z,250.63
2022-11-06T17:46:44.958Z,250.57
2022-11-06T17:49:17.575Z,254.80
2022-11-06T17:52:00.262Z,249.10
2022-11-06T17:54:33.424Z,257.40
2022-11-06T17:57:03.226Z,255.90
2022-11-06T17:59:31.210Z,251.83
2022-11-06T18:01:58.670Z,247.23
2022-11-06T18:04:27.953Z,261.57
2022-11-06T18:06:55.158Z,246.67
2022-11-06T18:09:24.207Z,244.33
2022-11-06T18:11:53.457Z,251.20
2022-11-06T18:14:22.414Z,255.70
2022-11-06T18:16:49.969Z,247.17
2022-11-06T18:19:22.463Z,242.30
2022-11-06T18:21:50.278Z,232.87
2022-11-06T18:24:17.624Z,245.27
2022-11-06T18:26:44.632Z,231.97
2022-11-06T18:29:12.915Z,241.63
2022-11-06T18:31:40.163Z,246.77
2022-11-06T18:34:12.889Z,261.00
2022-11-06T18:36:42.257Z,255.07
2022-11-06T18:39:09.178Z,271.77
2022-11-06T18:41:36.804Z,269.00
2022-11-06T18:44:04.000Z,230.47
2022-11-06T18:46:31.702Z,241.73
2022-11-06T18:48:59.274Z,242.13
2022-11-06T18:51:36.026Z,238.33
2022-11-06T18:54:07.487Z,263.20
2022-11-06T18:56:38.962Z,251.33
2022-11-06T18:59:10.290Z,250.73
2022-11-06T19:01:37.475Z,265.90
2022-11-06T19:04:05.108Z,267.37
2022-11-06T19:06:32.813Z,265.63
2022-11-06T19:08:59.775Z,254.00
2022-11-06T19:11:26.701Z,267.83
2022-11-06T19:13:53.826Z,256.00
2022-11-06T19:16:20.904Z,267.90
2022-11-06T19:21:30.293Z,259.97
2022-11-06T19:24:05.244Z,275.33
2022-11-06T19:26:36.818Z,270.17
2022-11-06T19:29:08.222Z,264.67
2022-11-06T19:31:37.413Z,266.30
2022-11-06T19:34:06.947Z,273.23
2022-11-06T19:36:35.172Z,264.47
2022-11-06T19:39:02.222Z,252.13
2022-11-06T19:41:30.112Z,251.20
2022-11-06T19:43:57.135Z,244.83
2022-11-06T19:46:27.274Z,234.93
2022-11-06T19:48:57.899Z,227.60
2022-11-06T19:51:25.973Z,237.47
2022-11-06T19:53:53.862Z,223.30
2022-11-06T19:56:22.100Z,227.80
2022-11-06T19:58:50.287Z,235.53
2022-11-06T20:01:18.125Z,253.50
2022-11-06T20:03:45.383Z,258.87
2022-11-06T20:06:13.420Z,262.13
2022-11-06T20:08:40.736Z,278.93
2022-11-06T20:11:14.944Z,286.07
2022-11-06T20:13:43.247Z,282.47
2022-11-06T20:16:19.580Z,265.30
2022-11-06T20:18:56.050Z,250.70
2022-11-06T20:21:26.323Z,232.13
2022-11-06T20:23:54.062Z,227.47
2022-11-06T20:26:21.768Z,231.90
2022-11-06T20:28:49.429Z,208.80
2022-11-06T20:31:21.590Z,221.60
2022-11-06T20:33:49.134Z,215.97
2022-11-06T20:36:28.459Z,203.70
2022-11-06T20:38:59.476Z,218.10
2022-11-06T20:41:27.604Z,205.57
2022-11-06T20:43:55.552Z,217.67
2022-11-06T20:46:23.609Z,217.67
2022-11-06T20:48:51.362Z,211.00
2022-11-06T20:51:22.738Z,215.37
2022-11-06T20:53:50.381Z,199.30
2022-11-06T20:56:20.698Z,207.73
2022-11-06T20:58:48.298Z,204.00
2022-11-06T21:01:19.973Z,222.87
2022-11-06T21:03:49.621Z,219.13
2022-11-06T21:06:18.362Z,221.17
2022-11-06T21:08:45.894Z,233.97
2022-11-06T21:11:20.547Z,222.90
2022-11-06T21:13:49.922Z,210.80
2022-11-06T21:16:21.022Z,213.33
2022-11-06T21:18:48.718Z,211.00
2022-11-06T21:21:20.850Z,226.10
2022-11-06T21:23:51.984Z,211.73
2022-11-06T21:26:21.399Z,219.03
2022-11-06T21:28:48.562Z,211.90
2022-11-06T21:31:19.851Z,214.17
2022-11-06T21:33:49.740Z,206.93
2022-11-06T21:36:23.486Z,204.47
2022-11-06T21:38:51.041Z,213.17
2022-11-06T21:41:23.169Z,210.90
2022-11-06T21:43:50.558Z,210.03
2022-11-06T21:46:19.050Z,219.30
2022-11-06T21:48:47.619Z,202.27
2022-11-06T21:51:22.482Z,205.00
2022-11-06T21:54:13.189Z,209.90
2022-11-06T21:56:41.741Z,197.93
2022-11-06T21:59:12.512Z,203.20
2022-11-06T22:01:40.877Z,202.97
2022-11-06T22:04:08.868Z,197.53
2022-11-06T22:06:36.115Z,203.00
2022-11-06T22:09:03.772Z,212.17
2022-11-06T22:11:37.327Z,204.57
2022-11-06T22:14:08.457Z,208.37
2022-11-06T22:16:39.264Z,207.90
2022-11-06T22:19:08.444Z,204.70
2022-11-06T22:21:38.064Z,204.53
2022-11-06T22:24:07.159Z,198.83
2022-11-06T22:26:35.535Z,205.07
2022-11-06T22:29:07.555Z,195.03
2022-11-06T22:31:35.047Z,202.27
2022-11-06T22:34:02.324Z,219.60
2022-11-06T22:36:29.605Z,221.70
2022-11-06T22:38:58.874Z,226.63
2022-11-06T22:41:26.237Z,216.20
2022-11-06T22:43:57.070Z,224.00
2022-11-06T22:46:24.653Z,223.13
2022-11-06T22:48:52.856Z,211.80
2022-11-06T22:51:24.207Z,220.50
2022-11-06T22:53:52.510Z,210.30
2022-11-06T22:56:21.268Z,216.97
2022-11-06T22:58:52.407Z,210.50
2022-11-06T23:01:26.026Z,207.70
2022-11-06T23:03:56.833Z,203.23
2022-11-06T23:06:25.470Z,208.33
2022-11-06T23:08:52.600Z,209.60
2022-11-06T23:11:20.182Z,202.13
2022-11-06T23:13:47.440Z,197.87
2022-11-06T23:16:18.080Z,221.47
2022-11-06T23:18:45.685Z,219.23
2022-11-06T23:21:16.621Z,200.77
2022-11-06T23:23:45.201Z,208.33
2022-11-06T23:26:18.454Z,209.33
2022-11-06T23:28:46.070Z,203.67
2022-11-06T23:31:15.366Z,204.13
2022-11-06T23:33:43.530Z,204.50
2022-11-06T23:36:13.781Z,206.50
2022-11-06T23:38:41.195Z,199.00
2022-11-06T23:41:33.018Z,212.87
2022-11-06T23:44:01.491Z,205.87
2022-11-06T23:46:32.968Z,216.43
2022-11-06T23:49:00.579Z,202.57
2022-11-06T23:51:28.161Z,204.40
2022-11-06T23:53:55.773Z,201.00
2022-11-06T23:56:23.062Z,208.57
2022-11-06T23:58:50.334Z,204.23
